sensor_id;sensor_type;location;lat;lon;timestamp;P1;durP1;ratioP1;P2;durP2;ratioP2
15952;SDS011;8075;47.766;8.846;2023-05-14T00:00:40;5.50;;;5.20;;
15952;SDS011;8075;47.766;8.846;2023-05-14T00:03:06;5.45;;;5.05;;
15952;SDS011;8075;47.766;8.846;2023-05-14T00:05:31;5.43;;;5.03;;
15952;SDS011;8075;47.766;8.846;2023-05-14T00:07:57;5.10;;;4.70;;
15952;SDS011;8075;47.766;8.846;2023-05-14T00:10:24;5.50;;;5.10;;
15952;SDS011;8075;47.766;8.846;2023-05-14T00:12:50;6.10;;;5.70;;
15952;SDS011;8075;47.766;8.846;2023-05-14T00:15:16;5.77;;;5.27;;
15952;SDS011;8075;47.766;8.846;2023-05-14T00:17:42;5.90;;;5.50;;
15952;SDS011;8075;47.766;8.846;2023-05-14T00:20:09;5.57;;;5.20;;
15952;SDS011;8075;47.766;8.846;2023-05-14T00:22:36;6.05;;;5.65;;
15952;SDS011;8075;47.766;8.846;2023-05-14T00:25:02;6.67;;;6.20;;
15952;SDS011;8075;47.766;8.846;2023-05-14T00:27:28;5.95;;;5.55;;
15952;SDS011;8075;47.766;8.846;2023-05-14T00:29:54;5.80;;;5.40;;
15952;SDS011;8075;47.766;8.846;2023-05-14T00:32:20;5.83;;;5.33;;
15952;SDS011;8075;47.766;8.846;2023-05-14T00:34:46;6.53;;;6.07;;
15952;SDS011;8075;47.766;8.846;2023-05-14T00:37:12;5.70;;;5.35;;
15952;SDS011;8075;47.766;8.846;2023-05-14T00:39:38;6.07;;;5.70;;
15952;SDS011;8075;47.766;8.846;2023-05-14T00:42:04;6.00;;;5.60;;
15952;SDS011;8075;47.766;8.846;2023-05-14T00:44:30;5.78;;;5.45;;
15952;SDS011;8075;47.766;8.846;2023-05-14T00:46:57;6.00;;;5.57;;
15952;SDS011;8075;47.766;8.846;2023-05-14T00:49:23;6.20;;;5.80;;
15952;SDS011;8075;47.766;8.846;2023-05-14T00:51:50;5.68;;;5.35;;
15952;SDS011;8075;47.766;8.846;2023-05-14T00:54:16;5.40;;;5.05;;
15952;SDS011;8075;47.766;8.846;2023-05-14T00:56:43;5.80;;;5.50;;
15952;SDS011;8075;47.766;8.846;2023-05-14T00:59:10;5.50;;;5.10;;
15952;SDS011;8075;47.766;8.846;2023-05-14T01:01:36;6.00;;;5.60;;
15952;SDS011;8075;47.766;8.846;2023-05-14T01:04:02;6.10;;;5.60;;
15952;SDS011;8075;47.766;8.846;2023-05-14T01:11:54;6.18;;;5.78;;
15952;SDS011;8075;47.766;8.846;2023-05-14T01:14:34;5.85;;;5.45;;
15952;SDS011;8075;47.766;8.846;2023-05-14T01:17:01;6.05;;;5.65;;
15952;SDS011;8075;47.766;8.846;2023-05-14T01:19:41;6.25;;;5.82;;
15952;SDS011;8075;47.766;8.846;2023-05-14T01:22:08;6.17;;;5.77;;
15952;SDS011;8075;47.766;8.846;2023-05-14T01:24:34;6.35;;;5.78;;
15952;SDS011;8075;47.766;8.846;2023-05-14T01:29:50;6.63;;;6.13;;
15952;SDS011;8075;47.766;8.846;2023-05-14T01:32:17;7.43;;;6.93;;
15952;SDS011;8075;47.766;8.846;2023-05-14T01:34:45;7.18;;;6.68;;
15952;SDS011;8075;47.766;8.846;2023-05-14T01:37:12;7.00;;;6.50;;
15952;SDS011;8075;47.766;8.846;2023-05-14T01:39:38;7.47;;;6.97;;
15952;SDS011;8075;47.766;8.846;2023-05-14T01:42:05;7.32;;;6.82;;
15952;SDS011;8075;47.766;8.846;2023-05-14T01:44:31;6.72;;;6.32;;
15952;SDS011;8075;47.766;8.846;2023-05-14T01:46:58;6.93;;;6.53;;
15952;SDS011;8075;47.766;8.846;2023-05-14T01:49:24;6.95;;;6.45;;
15952;SDS011;8075;47.766;8.846;2023-05-14T01:51:50;7.22;;;6.72;;
15952;SDS011;8075;47.766;8.846;2023-05-14T01:54:16;6.57;;;6.15;;
15952;SDS011;8075;47.766;8.846;2023-05-14T01:56:42;6.40;;;6.00;;
15952;SDS011;8075;47.766;8.846;2023-05-14T01:59:08;6.95;;;6.45;;
15952;SDS011;8075;47.766;8.846;2023-05-14T02:01:34;6.95;;;6.50;;
15952;SDS011;8075;47.766;8.846;2023-05-14T02:04:00;6.73;;;6.33;;
15952;SDS011;8075;47.766;8.846;2023-05-14T02:06:26;6.85;;;6.35;;
15952;SDS011;8075;47.766;8.846;2023-05-14T02:08:52;7.35;;;6.82;;
15952;SDS011;8075;47.766;8.846;2023-05-14T02:11:18;6.53;;;6.07;;
15952;SDS011;8075;47.766;8.846;2023-05-14T02:13:44;6.53;;;6.10;;
15952;SDS011;8075;47.766;8.846;2023-05-14T02:16:10;7.32;;;6.85;;
15952;SDS011;8075;47.766;8.846;2023-05-14T02:18:36;6.72;;;6.22;;
15952;SDS011;8075;47.766;8.846;2023-05-14T02:21:02;6.80;;;6.40;;
15952;SDS011;8075;47.766;8.846;2023-05-14T02:23:28;6.35;;;5.93;;
15952;SDS011;8075;47.766;8.846;2023-05-14T02:25:54;6.50;;;6.03;;
15952;SDS011;8075;47.766;8.846;2023-05-14T02:28:19;6.80;;;6.40;;
15952;SDS011;8075;47.766;8.846;2023-05-14T02:30:45;6.68;;;6.13;;
15952;SDS011;8075;47.766;8.846;2023-05-14T02:33:11;6.43;;;6.03;;
15952;SDS011;8075;47.766;8.846;2023-05-14T02:35:37;6.70;;;6.30;;
15952;SDS011;8075;47.766;8.846;2023-05-14T02:38:03;6.10;;;5.70;;
15952;SDS011;8075;47.766;8.846;2023-05-14T02:40:30;6.67;;;6.17;;
15952;SDS011;8075;47.766;8.846;2023-05-14T02:42:56;6.57;;;6.15;;
15952;SDS011;8075;47.766;8.846;2023-05-14T02:45:22;6.65;;;6.13;;
15952;SDS011;8075;47.766;8.846;2023-05-14T02:47:48;7.20;;;6.63;;
15952;SDS011;8075;47.766;8.846;2023-05-14T02:50:14;7.43;;;6.85;;
15952;SDS011;8075;47.766;8.846;2023-05-14T02:52:40;7.50;;;6.90;;
15952;SDS011;8075;47.766;8.846;2023-05-14T02:55:06;6.50;;;6.10;;
15952;SDS011;8075;47.766;8.846;2023-05-14T02:57:33;6.93;;;6.43;;
15952;SDS011;8075;47.766;8.846;2023-05-14T02:59:59;7.05;;;6.65;;
15952;SDS011;8075;47.766;8.846;2023-05-14T03:02:25;6.67;;;6.27;;
15952;SDS011;8075;47.766;8.846;2023-05-14T03:04:51;6.47;;;5.97;;
15952;SDS011;8075;47.766;8.846;2023-05-14T03:07:17;6.53;;;6.13;;
15952;SDS011;8075;47.766;8.846;2023-05-14T03:09:42;6.60;;;6.13;;
15952;SDS011;8075;47.766;8.846;2023-05-14T03:12:09;6.68;;;6.18;;
15952;SDS011;8075;47.766;8.846;2023-05-14T03:14:35;6.40;;;6.00;;
15952;SDS011;8075;47.766;8.846;2023-05-14T03:17:01;6.30;;;5.90;;
15952;SDS011;8075;47.766;8.846;2023-05-14T03:19:27;7.53;;;6.90;;
15952;SDS011;8075;47.766;8.846;2023-05-14T03:21:53;6.15;;;5.75;;
15952;SDS011;8075;47.766;8.846;2023-05-14T03:24:19;6.47;;;6.07;;
15952;SDS011;8075;47.766;8.846;2023-05-14T03:26:45;6.50;;;6.07;;
15952;SDS011;8075;47.766;8.846;2023-05-14T03:29:11;6.20;;;5.80;;
15952;SDS011;8075;47.766;8.846;2023-05-14T03:31:40;6.55;;;6.05;;
15952;SDS011;8075;47.766;8.846;2023-05-14T03:34:07;6.70;;;6.20;;
15952;SDS011;8075;47.766;8.846;2023-05-14T03:36:33;6.43;;;6.00;;
15952;SDS011;8075;47.766;8.846;2023-05-14T03:39:00;6.93;;;6.50;;
15952;SDS011;8075;47.766;8.846;2023-05-14T03:41:26;7.20;;;6.60;;
15952;SDS011;8075;47.766;8.846;2023-05-14T03:43:52;6.68;;;6.18;;
15952;SDS011;8075;47.766;8.846;2023-05-14T03:46:18;5.93;;;5.53;;
15952;SDS011;8075;47.766;8.846;2023-05-14T03:48:44;6.20;;;5.72;;
15952;SDS011;8075;47.766;8.846;2023-05-14T03:51:10;6.57;;;6.18;;
15952;SDS011;8075;47.766;8.846;2023-05-14T03:53:36;6.00;;;5.50;;
15952;SDS011;8075;47.766;8.846;2023-05-14T03:56:02;6.80;;;6.30;;
15952;SDS011;8075;47.766;8.846;2023-05-14T03:58:28;7.07;;;6.57;;
15952;SDS011;8075;47.766;8.846;2023-05-14T04:00:55;6.30;;;5.90;;
15952;SDS011;8075;47.766;8.846;2023-05-14T04:03:21;6.70;;;6.30;;
15952;SDS011;8075;47.766;8.846;2023-05-14T04:05:47;6.75;;;6.35;;
15952;SDS011;8075;47.766;8.846;2023-05-14T04:08:13;6.87;;;6.40;;
15952;SDS011;8075;47.766;8.846;2023-05-14T04:10:39;6.97;;;6.47;;
15952;SDS011;8075;47.766;8.846;2023-05-14T04:13:05;6.28;;;5.88;;
15952;SDS011;8075;47.766;8.846;2023-05-14T04:15:31;6.53;;;6.03;;
15952;SDS011;8075;47.766;8.846;2023-05-14T04:17:57;6.25;;;5.85;;
15952;SDS011;8075;47.766;8.846;2023-05-14T04:20:23;6.45;;;6.00;;
15952;SDS011;8075;47.766;8.846;2023-05-14T04:22:49;6.05;;;5.70;;
15952;SDS011;8075;47.766;8.846;2023-05-14T04:25:14;6.40;;;6.00;;
15952;SDS011;8075;47.766;8.846;2023-05-14T04:27:42;6.30;;;5.90;;
15952;SDS011;8075;47.766;8.846;2023-05-14T04:30:08;6.85;;;6.35;;
15952;SDS011;8075;47.766;8.846;2023-05-14T04:32:34;6.60;;;6.18;;
15952;SDS011;8075;47.766;8.846;2023-05-14T04:35:00;6.72;;;6.32;;
15952;SDS011;8075;47.766;8.846;2023-05-14T04:37:26;6.40;;;5.90;;
15952;SDS011;8075;47.766;8.846;2023-05-14T04:39:53;6.22;;;5.88;;
15952;SDS011;8075;47.766;8.846;2023-05-14T04:42:18;6.97;;;6.47;;
15952;SDS011;8075;47.766;8.846;2023-05-14T04:44:45;6.70;;;6.30;;
15952;SDS011;8075;47.766;8.846;2023-05-14T04:47:11;7.05;;;6.60;;
15952;SDS011;8075;47.766;8.846;2023-05-14T04:49:37;7.35;;;6.85;;
15952;SDS011;8075;47.766;8.846;2023-05-14T04:52:03;7.22;;;6.82;;
15952;SDS011;8075;47.766;8.846;2023-05-14T04:54:29;6.75;;;6.35;;
15952;SDS011;8075;47.766;8.846;2023-05-14T04:56:55;6.60;;;6.20;;
15952;SDS011;8075;47.766;8.846;2023-05-14T04:59:21;6.95;;;6.45;;
15952;SDS011;8075;47.766;8.846;2023-05-14T05:01:47;7.60;;;6.90;;
15952;SDS011;8075;47.766;8.846;2023-05-14T05:04:13;7.55;;;7.05;;
15952;SDS011;8075;47.766;8.846;2023-05-14T05:06:39;7.20;;;6.60;;
15952;SDS011;8075;47.766;8.846;2023-05-14T05:09:05;6.93;;;6.53;;
15952;SDS011;8075;47.766;8.846;2023-05-14T05:11:32;7.28;;;6.78;;
15952;SDS011;8075;47.766;8.846;2023-05-14T05:13:58;7.45;;;6.95;;
15952;SDS011;8075;47.766;8.846;2023-05-14T05:16:24;8.60;;;8.00;;
15952;SDS011;8075;47.766;8.846;2023-05-14T05:18:50;8.50;;;8.00;;
15952;SDS011;8075;47.766;8.846;2023-05-14T05:21:16;8.23;;;7.70;;
15952;SDS011;8075;47.766;8.846;2023-05-14T05:23:42;8.18;;;7.57;;
15952;SDS011;8075;47.766;8.846;2023-05-14T05:26:08;8.40;;;7.88;;
15952;SDS011;8075;47.766;8.846;2023-05-14T05:28:34;9.30;;;8.55;;
15952;SDS011;8075;47.766;8.846;2023-05-14T05:31:00;9.93;;;9.32;;
15952;SDS011;8075;47.766;8.846;2023-05-14T05:33:26;9.55;;;8.95;;
15952;SDS011;8075;47.766;8.846;2023-05-14T05:35:52;10.27;;;9.57;;
15952;SDS011;8075;47.766;8.846;2023-05-14T05:38:18;13.18;;;12.18;;
15952;SDS011;8075;47.766;8.846;2023-05-14T05:40:44;11.70;;;10.85;;
15952;SDS011;8075;47.766;8.846;2023-05-14T05:43:10;10.77;;;10.07;;
15952;SDS011;8075;47.766;8.846;2023-05-14T05:45:37;11.00;;;10.20;;
15952;SDS011;8075;47.766;8.846;2023-05-14T05:48:04;10.27;;;9.57;;
15952;SDS011;8075;47.766;8.846;2023-05-14T05:50:30;11.07;;;10.35;;
15952;SDS011;8075;47.766;8.846;2023-05-14T05:52:56;10.60;;;9.90;;
15952;SDS011;8075;47.766;8.846;2023-05-14T05:55:24;10.48;;;9.70;;
15952;SDS011;8075;47.766;8.846;2023-05-14T05:57:51;10.02;;;9.43;;
15952;SDS011;8075;47.766;8.846;2023-05-14T06:00:17;9.48;;;8.88;;
15952;SDS011;8075;47.766;8.846;2023-05-14T06:02:43;10.37;;;9.67;;
15952;SDS011;8075;47.766;8.846;2023-05-14T06:05:09;9.88;;;9.18;;
15952;SDS011;8075;47.766;8.846;2023-05-14T06:07:35;10.80;;;10.10;;
15952;SDS011;8075;47.766;8.846;2023-05-14T06:10:01;10.77;;;9.98;;
15952;SDS011;8075;47.766;8.846;2023-05-14T06:12:27;10.88;;;9.98;;
15952;SDS011;8075;47.766;8.846;2023-05-14T06:14:54;11.27;;;10.53;;
15952;SDS011;8075;47.766;8.846;2023-05-14T06:17:21;11.05;;;10.30;;
15952;SDS011;8075;47.766;8.846;2023-05-14T06:19:47;11.43;;;10.63;;
15952;SDS011;8075;47.766;8.846;2023-05-14T06:22:13;12.35;;;11.48;;
15952;SDS011;8075;47.766;8.846;2023-05-14T06:24:40;12.90;;;12.00;;
15952;SDS011;8075;47.766;8.846;2023-05-14T06:27:06;11.75;;;10.95;;
15952;SDS011;8075;47.766;8.846;2023-05-14T06:29:32;11.60;;;10.80;;
15952;SDS011;8075;47.766;8.846;2023-05-14T06:32:01;11.68;;;10.77;;
15952;SDS011;8075;47.766;8.846;2023-05-14T06:34:27;11.52;;;10.73;;
15952;SDS011;8075;47.766;8.846;2023-05-14T06:36:53;11.82;;;11.02;;
15952;SDS011;8075;47.766;8.846;2023-05-14T06:39:19;11.52;;;10.73;;
15952;SDS011;8075;47.766;8.846;2023-05-14T06:41:45;11.20;;;10.40;;
15952;SDS011;8075;47.766;8.846;2023-05-14T06:44:11;11.63;;;10.80;;
15952;SDS011;8075;47.766;8.846;2023-05-14T06:46:37;11.98;;;11.07;;
15952;SDS011;8075;47.766;8.846;2023-05-14T06:49:03;11.90;;;11.07;;
15952;SDS011;8075;47.766;8.846;2023-05-14T06:51:29;13.07;;;12.07;;
15952;SDS011;8075;47.766;8.846;2023-05-14T06:53:56;13.32;;;12.32;;
15952;SDS011;8075;47.766;8.846;2023-05-14T06:56:22;11.77;;;10.95;;
15952;SDS011;8075;47.766;8.846;2023-05-14T06:58:48;12.27;;;11.48;;
15952;SDS011;8075;47.766;8.846;2023-05-14T07:01:15;12.40;;;11.48;;
15952;SDS011;8075;47.766;8.846;2023-05-14T07:03:41;11.77;;;10.98;;
15952;SDS011;8075;47.766;8.846;2023-05-14T07:06:07;11.00;;;10.30;;
15952;SDS011;8075;47.766;8.846;2023-05-14T07:08:33;12.23;;;11.40;;
15952;SDS011;8075;47.766;8.846;2023-05-14T07:11:00;12.57;;;11.68;;
15952;SDS011;8075;47.766;8.846;2023-05-14T07:13:26;13.90;;;12.83;;
15952;SDS011;8075;47.766;8.846;2023-05-14T07:15:52;13.93;;;12.93;;
15952;SDS011;8075;47.766;8.846;2023-05-14T07:18:20;18.83;;;17.15;;
15952;SDS011;8075;47.766;8.846;2023-05-14T07:20:46;16.02;;;14.77;;
15952;SDS011;8075;47.766;8.846;2023-05-14T07:23:12;18.48;;;16.98;;
15952;SDS011;8075;47.766;8.846;2023-05-14T07:25:38;16.98;;;15.65;;
15952;SDS011;8075;47.766;8.846;2023-05-14T07:28:04;16.57;;;15.27;;
15952;SDS011;8075;47.766;8.846;2023-05-14T07:30:30;18.50;;;17.00;;
15952;SDS011;8075;47.766;8.846;2023-05-14T07:32:56;16.92;;;15.60;;
15952;SDS011;8075;47.766;8.846;2023-05-14T07:35:22;17.80;;;16.30;;
15952;SDS011;8075;47.766;8.846;2023-05-14T07:37:48;16.63;;;15.32;;
15952;SDS011;8075;47.766;8.846;2023-05-14T07:40:14;15.85;;;14.73;;
15952;SDS011;8075;47.766;8.846;2023-05-14T07:42:40;12.77;;;11.88;;
15952;SDS011;8075;47.766;8.846;2023-05-14T07:45:06;12.77;;;11.87;;
15952;SDS011;8075;47.766;8.846;2023-05-14T07:47:33;11.45;;;10.65;;
15952;SDS011;8075;47.766;8.846;2023-05-14T07:49:59;11.05;;;10.25;;
15952;SDS011;8075;47.766;8.846;2023-05-14T07:52:25;10.82;;;10.10;;
15952;SDS011;8075;47.766;8.846;2023-05-14T07:54:51;10.82;;;10.13;;
15952;SDS011;8075;47.766;8.846;2023-05-14T07:57:18;11.40;;;10.63;;
15952;SDS011;8075;47.766;8.846;2023-05-14T07:59:44;13.77;;;12.77;;
15952;SDS011;8075;47.766;8.846;2023-05-14T08:02:10;11.80;;;11.00;;
15952;SDS011;8075;47.766;8.846;2023-05-14T08:04:37;13.85;;;12.85;;
15952;SDS011;8075;47.766;8.846;2023-05-14T08:07:03;12.75;;;11.85;;
15952;SDS011;8075;47.766;8.846;2023-05-14T08:09:29;11.48;;;10.70;;
15952;SDS011;8075;47.766;8.846;2023-05-14T08:11:55;11.60;;;10.80;;
15952;SDS011;8075;47.766;8.846;2023-05-14T08:14:21;12.27;;;11.38;;
15952;SDS011;8075;47.766;8.846;2023-05-14T08:16:47;12.43;;;11.43;;
15952;SDS011;8075;47.766;8.846;2023-05-14T08:19:14;12.80;;;11.90;;
15952;SDS011;8075;47.766;8.846;2023-05-14T08:21:40;14.73;;;13.73;;
15952;SDS011;8075;47.766;8.846;2023-05-14T08:24:06;14.60;;;13.55;;
15952;SDS011;8075;47.766;8.846;2023-05-14T08:26:32;15.27;;;13.88;;
15952;SDS011;8075;47.766;8.846;2023-05-14T08:28:58;14.65;;;13.55;;
15952;SDS011;8075;47.766;8.846;2023-05-14T08:31:24;14.13;;;13.13;;
15952;SDS011;8075;47.766;8.846;2023-05-14T08:33:50;13.87;;;12.77;;
15952;SDS011;8075;47.766;8.846;2023-05-14T08:36:16;17.08;;;15.77;;
15952;SDS011;8075;47.766;8.846;2023-05-14T08:38:42;15.70;;;14.55;;
15952;SDS011;8075;47.766;8.846;2023-05-14T08:41:09;16.30;;;15.00;;
15952;SDS011;8075;47.766;8.846;2023-05-14T08:46:04;15.82;;;14.65;;
15952;SDS011;8075;47.766;8.846;2023-05-14T08:48:31;18.15;;;16.75;;
15952;SDS011;8075;47.766;8.846;2023-05-14T08:50:58;17.15;;;15.77;;
15952;SDS011;8075;47.766;8.846;2023-05-14T08:53:24;14.88;;;13.77;;
15952;SDS011;8075;47.766;8.846;2023-05-14T08:55:50;15.98;;;14.80;;
15952;SDS011;8075;47.766;8.846;2023-05-14T08:58:18;14.80;;;13.70;;
15952;SDS011;8075;47.766;8.846;2023-05-14T09:00:44;16.58;;;15.38;;
15952;SDS011;8075;47.766;8.846;2023-05-14T09:03:10;17.77;;;16.38;;
15952;SDS011;8075;47.766;8.846;2023-05-14T09:05:37;18.55;;;17.05;;
15952;SDS011;8075;47.766;8.846;2023-05-14T09:08:03;17.40;;;16.00;;
15952;SDS011;8075;47.766;8.846;2023-05-14T09:10:29;16.40;;;15.05;;
15952;SDS011;8075;47.766;8.846;2023-05-14T09:12:56;18.27;;;16.83;;
15952;SDS011;8075;47.766;8.846;2023-05-14T09:15:22;18.77;;;17.27;;
15952;SDS011;8075;47.766;8.846;2023-05-14T09:17:50;18.02;;;16.63;;
15952;SDS011;8075;47.766;8.846;2023-05-14T09:20:17;18.17;;;16.77;;
15952;SDS011;8075;47.766;8.846;2023-05-14T09:22:43;19.30;;;17.70;;
15952;SDS011;8075;47.766;8.846;2023-05-14T09:25:09;19.10;;;17.60;;
15952;SDS011;8075;47.766;8.846;2023-05-14T09:27:38;19.95;;;18.27;;
15952;SDS011;8075;47.766;8.846;2023-05-14T09:30:08;18.98;;;17.48;;
15952;SDS011;8075;47.766;8.846;2023-05-14T09:32:38;19.93;;;18.23;;
15952;SDS011;8075;47.766;8.846;2023-05-14T09:35:15;19.58;;;17.88;;
15952;SDS011;8075;47.766;8.846;2023-05-14T09:37:42;21.45;;;19.42;;
15952;SDS011;8075;47.766;8.846;2023-05-14T09:40:08;20.37;;;18.63;;
15952;SDS011;8075;47.766;8.846;2023-05-14T09:42:34;19.77;;;18.02;;
15952;SDS011;8075;47.766;8.846;2023-05-14T09:45:00;18.07;;;16.67;;
15952;SDS011;8075;47.766;8.846;2023-05-14T09:47:28;18.52;;;16.92;;
15952;SDS011;8075;47.766;8.846;2023-05-14T09:49:55;17.07;;;15.67;;
15952;SDS011;8075;47.766;8.846;2023-05-14T09:52:22;17.58;;;16.08;;
15952;SDS011;8075;47.766;8.846;2023-05-14T09:54:49;14.38;;;13.18;;
15952;SDS011;8075;47.766;8.846;2023-05-14T09:57:16;14.98;;;13.85;;
15952;SDS011;8075;47.766;8.846;2023-05-14T09:59:42;14.77;;;13.68;;
15952;SDS011;8075;47.766;8.846;2023-05-14T10:02:24;15.27;;;13.98;;
15952;SDS011;8075;47.766;8.846;2023-05-14T10:04:51;15.90;;;14.50;;
15952;SDS011;8075;47.766;8.846;2023-05-14T10:07:21;15.02;;;13.82;;
15952;SDS011;8075;47.766;8.846;2023-05-14T10:09:48;15.50;;;14.30;;
15952;SDS011;8075;47.766;8.846;2023-05-14T10:12:17;15.48;;;14.38;;
15952;SDS011;8075;47.766;8.846;2023-05-14T10:14:46;15.05;;;13.95;;
15952;SDS011;8075;47.766;8.846;2023-05-14T10:17:13;14.70;;;13.60;;
15952;SDS011;8075;47.766;8.846;2023-05-14T10:19:42;14.82;;;13.82;;
15952;SDS011;8075;47.766;8.846;2023-05-14T10:22:11;14.85;;;13.75;;
15952;SDS011;8075;47.766;8.846;2023-05-14T10:24:37;16.05;;;14.65;;
15952;SDS011;8075;47.766;8.846;2023-05-14T10:27:03;13.65;;;12.65;;
15952;SDS011;8075;47.766;8.846;2023-05-14T10:29:33;14.43;;;13.43;;
15952;SDS011;8075;47.766;8.846;2023-05-14T10:32:02;12.77;;;11.88;;
15952;SDS011;8075;47.766;8.846;2023-05-14T10:37:06;10.93;;;10.10;;
15952;SDS011;8075;47.766;8.846;2023-05-14T10:39:39;11.60;;;10.80;;
15952;SDS011;8075;47.766;8.846;2023-05-14T10:42:05;10.57;;;9.85;;
15952;SDS011;8075;47.766;8.846;2023-05-14T10:44:31;11.43;;;10.43;;
15952;SDS011;8075;47.766;8.846;2023-05-14T10:47:00;12.30;;;11.40;;
15952;SDS011;8075;47.766;8.846;2023-05-14T10:49:26;11.65;;;10.82;;
15952;SDS011;8075;47.766;8.846;2023-05-14T10:51:52;10.48;;;9.77;;
15952;SDS011;8075;47.766;8.846;2023-05-14T10:54:18;10.60;;;9.90;;
15952;SDS011;8075;47.766;8.846;2023-05-14T10:56:45;11.00;;;10.10;;
15952;SDS011;8075;47.766;8.846;2023-05-14T10:59:11;10.98;;;10.18;;
15952;SDS011;8075;47.766;8.846;2023-05-14T11:01:39;10.40;;;9.70;;
15952;SDS011;8075;47.766;8.846;2023-05-14T11:04:05;10.68;;;9.98;;
15952;SDS011;8075;47.766;8.846;2023-05-14T11:06:31;9.90;;;9.10;;
15952;SDS011;8075;47.766;8.846;2023-05-14T11:08:58;10.47;;;9.77;;
15952;SDS011;8075;47.766;8.846;2023-05-14T11:11:25;10.32;;;9.63;;
15952;SDS011;8075;47.766;8.846;2023-05-14T11:13:52;10.32;;;9.68;;
15952;SDS011;8075;47.766;8.846;2023-05-14T11:16:19;10.27;;;9.27;;
15952;SDS011;8075;47.766;8.846;2023-05-14T11:18:47;10.33;;;9.63;;
15952;SDS011;8075;47.766;8.846;2023-05-14T11:21:17;9.80;;;9.10;;
15952;SDS011;8075;47.766;8.846;2023-05-14T11:23:45;9.40;;;8.70;;
15952;SDS011;8075;47.766;8.846;2023-05-14T11:26:11;8.80;;;8.20;;
15952;SDS011;8075;47.766;8.846;2023-05-14T11:28:37;8.20;;;7.60;;
15952;SDS011;8075;47.766;8.846;2023-05-14T11:31:03;8.80;;;8.10;;
15952;SDS011;8075;47.766;8.846;2023-05-14T11:33:30;8.25;;;7.60;;
15952;SDS011;8075;47.766;8.846;2023-05-14T11:35:56;8.02;;;7.47;;
15952;SDS011;8075;47.766;8.846;2023-05-14T11:38:22;8.23;;;7.70;;
15952;SDS011;8075;47.766;8.846;2023-05-14T11:40:51;7.35;;;6.85;;
15952;SDS011;8075;47.766;8.846;2023-05-14T11:43:18;7.60;;;7.07;;
15952;SDS011;8075;47.766;8.846;2023-05-14T11:45:48;7.18;;;6.68;;
15952;SDS011;8075;47.766;8.846;2023-05-14T12:22:33;7.10;;;6.60;;
15952;SDS011;8075;47.766;8.846;2023-05-14T12:24:59;7.03;;;6.53;;
15952;SDS011;8075;47.766;8.846;2023-05-14T12:27:26;7.45;;;6.95;;
15952;SDS011;8075;47.766;8.846;2023-05-14T12:30:02;7.57;;;7.07;;
15952;SDS011;8075;47.766;8.846;2023-05-14T12:32:31;7.70;;;7.20;;
15952;SDS011;8075;47.766;8.846;2023-05-14T12:34:58;7.20;;;6.70;;
15952;SDS011;8075;47.766;8.846;2023-05-14T12:49:59;6.53;;;6.03;;
15952;SDS011;8075;47.766;8.846;2023-05-14T12:52:25;6.55;;;6.15;;
15952;SDS011;8075;47.766;8.846;2023-05-14T12:54:51;6.30;;;5.90;;
15952;SDS011;8075;47.766;8.846;2023-05-14T12:57:17;6.07;;;5.68;;
15952;SDS011;8075;47.766;8.846;2023-05-14T12:59:43;5.22;;;4.68;;
15952;SDS011;8075;47.766;8.846;2023-05-14T13:02:09;4.50;;;4.20;;
15952;SDS011;8075;47.766;8.846;2023-05-14T13:04:35;4.65;;;4.35;;
15952;SDS011;8075;47.766;8.846;2023-05-14T13:07:02;4.40;;;4.10;;
15952;SDS011;8075;47.766;8.846;2023-05-14T13:09:28;4.50;;;4.20;;
15952;SDS011;8075;47.766;8.846;2023-05-14T13:11:54;5.20;;;4.70;;
15952;SDS011;8075;47.766;8.846;2023-05-14T13:14:20;5.00;;;4.60;;
15952;SDS011;8075;47.766;8.846;2023-05-14T13:16:46;4.00;;;3.70;;
15952;SDS011;8075;47.766;8.846;2023-05-14T13:19:12;4.43;;;4.13;;
15952;SDS011;8075;47.766;8.846;2023-05-14T13:21:38;4.18;;;3.88;;
15952;SDS011;8075;47.766;8.846;2023-05-14T13:24:04;4.45;;;4.05;;
15952;SDS011;8075;47.766;8.846;2023-05-14T13:26:30;3.97;;;3.78;;
15952;SDS011;8075;47.766;8.846;2023-05-14T13:28:56;4.22;;;3.92;;
15952;SDS011;8075;47.766;8.846;2023-05-14T13:31:22;3.70;;;3.40;;
15952;SDS011;8075;47.766;8.846;2023-05-14T13:33:48;4.20;;;3.80;;
15952;SDS011;8075;47.766;8.846;2023-05-14T13:36:14;4.22;;;3.92;;
15952;SDS011;8075;47.766;8.846;2023-05-14T13:38:40;3.70;;;3.40;;
15952;SDS011;8075;47.766;8.846;2023-05-14T13:41:06;3.60;;;3.30;;
15952;SDS011;8075;47.766;8.846;2023-05-14T13:43:33;3.40;;;3.20;;
15952;SDS011;8075;47.766;8.846;2023-05-14T13:46:00;3.20;;;3.00;;
15952;SDS011;8075;47.766;8.846;2023-05-14T13:48:26;3.63;;;3.42;;
15952;SDS011;8075;47.766;8.846;2023-05-14T13:50:52;5.70;;;5.30;;
15952;SDS011;8075;47.766;8.846;2023-05-14T13:53:19;5.35;;;4.85;;
15952;SDS011;8075;47.766;8.846;2023-05-14T13:55:45;4.97;;;4.68;;
15952;SDS011;8075;47.766;8.846;2023-05-14T13:58:12;5.03;;;4.72;;
15952;SDS011;8075;47.766;8.846;2023-05-14T14:00:38;5.57;;;5.18;;
15952;SDS011;8075;47.766;8.846;2023-05-14T14:03:04;5.47;;;5.13;;
15952;SDS011;8075;47.766;8.846;2023-05-14T14:05:30;5.57;;;5.07;;
15952;SDS011;8075;47.766;8.846;2023-05-14T14:07:56;5.22;;;4.93;;
15952;SDS011;8075;47.766;8.846;2023-05-14T14:10:22;4.70;;;4.40;;
15952;SDS011;8075;47.766;8.846;2023-05-14T14:12:48;5.38;;;4.97;;
15952;SDS011;8075;47.766;8.846;2023-05-14T14:15:14;5.05;;;4.75;;
15952;SDS011;8075;47.766;8.846;2023-05-14T14:17:40;5.05;;;4.75;;
15952;SDS011;8075;47.766;8.846;2023-05-14T14:20:07;5.20;;;4.90;;
15952;SDS011;8075;47.766;8.846;2023-05-14T14:22:33;4.80;;;4.50;;
15952;SDS011;8075;47.766;8.846;2023-05-14T14:24:59;5.00;;;4.60;;
15952;SDS011;8075;47.766;8.846;2023-05-14T14:27:25;5.22;;;4.82;;
15952;SDS011;8075;47.766;8.846;2023-05-14T14:29:51;4.75;;;4.45;;
15952;SDS011;8075;47.766;8.846;2023-05-14T14:32:17;5.38;;;5.00;;
15952;SDS011;8075;47.766;8.846;2023-05-14T14:34:44;4.63;;;4.32;;
15952;SDS011;8075;47.766;8.846;2023-05-14T14:37:10;3.17;;;2.97;;
15952;SDS011;8075;47.766;8.846;2023-05-14T14:39:36;2.58;;;1.65;;
15952;SDS011;8075;47.766;8.846;2023-05-14T14:42:02;1.77;;;1.30;;
15952;SDS011;8075;47.766;8.846;2023-05-14T14:44:28;2.80;;;1.35;;
15952;SDS011;8075;47.766;8.846;2023-05-14T14:46:54;1.90;;;1.63;;
15952;SDS011;8075;47.766;8.846;2023-05-14T14:49:20;2.50;;;1.50;;
15952;SDS011;8075;47.766;8.846;2023-05-14T14:51:46;4.32;;;1.60;;
15952;SDS011;8075;47.766;8.846;2023-05-14T14:54:12;3.63;;;1.50;;
15952;SDS011;8075;47.766;8.846;2023-05-14T14:56:38;3.92;;;1.23;;
15952;SDS011;8075;47.766;8.846;2023-05-14T14:59:04;1.83;;;1.10;;
15952;SDS011;8075;47.766;8.846;2023-05-14T15:01:30;1.52;;;1.08;;
15952;SDS011;8075;47.766;8.846;2023-05-14T15:03:56;1.30;;;1.10;;
15952;SDS011;8075;47.766;8.846;2023-05-14T15:06:22;1.70;;;1.23;;
15952;SDS011;8075;47.766;8.846;2023-05-14T15:08:48;1.92;;;1.10;;
15952;SDS011;8075;47.766;8.846;2023-05-14T15:11:14;4.05;;;1.50;;
15952;SDS011;8075;47.766;8.846;2023-05-14T15:13:40;2.67;;;1.60;;
15952;SDS011;8075;47.766;8.846;2023-05-14T15:16:07;1.80;;;1.70;;
15952;SDS011;8075;47.766;8.846;2023-05-14T15:18:33;2.15;;;1.95;;
15952;SDS011;8075;47.766;8.846;2023-05-14T15:20:59;3.25;;;2.50;;
15952;SDS011;8075;47.766;8.846;2023-05-14T15:23:25;3.10;;;2.80;;
15952;SDS011;8075;47.766;8.846;2023-05-14T15:25:51;3.65;;;3.35;;
15952;SDS011;8075;47.766;8.846;2023-05-14T15:28:17;4.03;;;3.63;;
15952;SDS011;8075;47.766;8.846;2023-05-14T15:30:43;3.97;;;3.10;;
15952;SDS011;8075;47.766;8.846;2023-05-14T15:33:09;5.18;;;4.72;;
15952;SDS011;8075;47.766;8.846;2023-05-14T15:35:35;5.00;;;4.50;;
15952;SDS011;8075;47.766;8.846;2023-05-14T15:38:02;3.83;;;3.43;;
15952;SDS011;8075;47.766;8.846;2023-05-14T15:40:28;2.85;;;2.65;;
15952;SDS011;8075;47.766;8.846;2023-05-14T15:42:54;3.33;;;2.88;;
15952;SDS011;8075;47.766;8.846;2023-05-14T15:45:20;4.10;;;3.20;;
15952;SDS011;8075;47.766;8.846;2023-05-14T15:47:46;3.30;;;3.10;;